Terminal Aerodrome Forecast
Issued by NWS

Home | Current Version | Previous Version | Text Only | Print | Product List | Glossary On
Versions: 1 2 3 4 5 6 7 8 9 10 11 12 13 14
000
FTUS45 KRIW 162323
TAFBPI
TAF
KBPI 162323Z 1700/1724 VRB04KT P6SM SKC
     FM170700 VRB03KT P6SM VCFG SCT003
     FM170900 VRB03KT 3/4SM BR VV003
     FM171700 VRB03KT 2SM BR BKN005=

USA.gov is the U.S. government's official web portal to all federal, state and local government web resources and services.